Terminal Aerodrome Forecast
Issued by NWS

Home | Current Version | Previous Version | Graphics & Text | Print | Product List | Glossary On
Versions: 1 2 3 4 5 6 7 8 9 10 11 12 13 14 15 16 17 18 19 20 21 22 23 24 25 26 27 28 29 30
000
FTUS43 KDVN 271007 AAA
TAFCID
TAF AMD
KCID 271007Z 2710/2806 VRB03KT 1/4SM FG VV002
     FM271300 11004KT 2SM BR SCT004 BKN008
     FM271500 12005KT P6SM SCT020
     FM272100 12009KT P6SM VCTS BKN050CB
     FM280100 36012KT 6SM BR BKN030=

USA.gov is the U.S. government's official web portal to all federal, state and local government web resources and services.